Joel, Wisconsin
Current Conditions -  °F | °C
As of 9:55 AM on Saturday 20 Dec 2014 (Local Time) from KOEO Reporting Station
Haze Haze  
Wind Chill: 23°   Ceiling: 1200
Heat Index: 30°   Visibility: 5mi
Dew Point: 27°   Wind: 8mph
Humidity: 88%   Direction: 150°SSE
Pressure: 30.18"   Gusts: NA
Location:  45.3559°N, 92.3527°W
Report Text: KOEO 201555Z AUTO 15007KT 5SM BR OVC012 M01/M03 A3018 RMK AO2 T10101028
Loading
Personal Weather Stations






























Interactive Weather Map New forecast layout! Learn more

10-Day Weather Forecast

Advertisements
Track Severe Weather on mobile